createdAt,value
2023-01-07T00:01:27.956Z,12.31
2023-01-07T00:03:55.841Z,12.32
2023-01-07T00:06:25.472Z,12.32
2023-01-07T00:08:53.649Z,12.31
2023-01-07T00:11:25.319Z,12.29
2023-01-07T00:13:53.494Z,12.29
2023-01-07T00:16:22.649Z,12.24
2023-01-07T00:18:52.256Z,12.25
2023-01-07T00:21:20.477Z,12.31
2023-01-07T00:23:47.799Z,12.33
2023-01-07T00:26:16.629Z,12.33
2023-01-07T00:28:44.662Z,12.35
2023-01-07T00:31:12.765Z,12.32
2023-01-07T00:33:40.007Z,12.38
2023-01-07T00:36:08.281Z,12.39
2023-01-07T00:38:36.311Z,12.40
2023-01-07T00:41:04.104Z,12.39
2023-01-07T00:43:31.679Z,12.38
2023-01-07T00:45:58.192Z,12.37
2023-01-07T00:48:24.841Z,12.35
2023-01-07T00:50:52.488Z,12.37
2023-01-07T00:53:19.117Z,12.39
2023-01-07T00:55:47.648Z,12.40
2023-01-07T00:58:23.381Z,12.42
2023-01-07T01:00:56.454Z,12.43
2023-01-07T01:03:24.811Z,12.44
2023-01-07T01:05:51.329Z,12.43
2023-01-07T01:08:18.712Z,12.44
2023-01-07T01:10:45.775Z,12.45
2023-01-07T01:13:15.747Z,12.46
2023-01-07T01:15:44.460Z,12.47
2023-01-07T01:18:11.467Z,12.46
2023-01-07T01:20:38.806Z,12.47
2023-01-07T01:23:06.184Z,12.48
2023-01-07T01:25:32.842Z,12.48
2023-01-07T01:27:59.379Z,12.47
2023-01-07T01:30:26.484Z,12.48
2023-01-07T01:32:53.135Z,12.48
2023-01-07T01:35:19.957Z,12.48
2023-01-07T01:37:46.643Z,12.50
2023-01-07T01:40:13.615Z,12.49
2023-01-07T01:42:40.089Z,12.51
2023-01-07T01:45:07.744Z,12.51
2023-01-07T01:47:46.354Z,12.46
2023-01-07T01:50:21.871Z,12.50
2023-01-07T01:52:57.885Z,12.50
2023-01-07T01:55:31.977Z,12.46
2023-01-07T01:58:06.293Z,12.50
2023-01-07T02:00:33.829Z,12.49
2023-01-07T02:03:01.659Z,12.44
2023-01-07T02:05:40.434Z,12.43
2023-01-07T02:08:08.022Z,12.44
2023-01-07T02:10:35.798Z,12.43
2023-01-07T02:13:19.659Z,12.40
2023-01-07T02:15:57.114Z,12.34
2023-01-07T02:18:47.686Z,12.34
2023-01-07T02:21:27.334Z,12.33
2023-01-07T02:24:05.087Z,12.30
2023-01-07T02:27:00.868Z,12.37
2023-01-07T02:30:00.931Z,12.33
2023-01-07T02:32:35.568Z,12.38
2023-01-07T02:35:31.555Z,12.35
2023-01-07T02:38:01.121Z,12.33
2023-01-07T02:40:58.236Z,12.23
2023-01-07T02:43:24.683Z,12.24
2023-01-07T02:46:14.348Z,12.18
2023-01-07T02:48:41.690Z,12.18
2023-01-07T02:51:08.165Z,12.17
2023-01-07T02:53:35.095Z,12.16
2023-01-07T02:56:24.324Z,12.18
2023-01-07T02:59:09.153Z,12.18
2023-01-07T03:02:18.248Z,12.19
2023-01-07T03:05:12.759Z,12.22
2023-01-07T03:08:00.971Z,12.25
2023-01-07T03:10:40.162Z,12.26
2023-01-07T03:13:35.941Z,12.24
2023-01-07T03:16:09.879Z,12.28
2023-01-07T03:18:42.657Z,12.29
2023-01-07T03:21:13.994Z,12.31
2023-01-07T03:23:47.563Z,12.33
2023-01-07T03:26:20.644Z,12.37
2023-01-07T03:28:50.022Z,12.38
2023-01-07T03:31:19.106Z,12.42
2023-01-07T03:33:50.303Z,12.45
2023-01-07T03:36:22.657Z,12.45
2023-01-07T03:38:52.627Z,12.46
2023-01-07T03:41:19.718Z,12.49
2023-01-07T03:43:46.711Z,12.49
2023-01-07T03:46:13.276Z,12.50
2023-01-07T03:48:39.773Z,12.50
2023-01-07T03:51:06.352Z,12.49
2023-01-07T03:53:33.133Z,12.51
2023-01-07T03:55:59.676Z,12.51
2023-01-07T03:58:26.149Z,12.51
2023-01-07T04:00:55.024Z,12.49
2023-01-07T04:03:21.530Z,12.53
2023-01-07T04:05:47.965Z,12.51
2023-01-07T04:08:14.837Z,12.51
2023-01-07T04:10:42.576Z,12.52
2023-01-07T04:13:09.628Z,12.51
2023-01-07T04:15:36.923Z,12.50
2023-01-07T04:18:03.612Z,12.50
2023-01-07T04:20:30.497Z,12.49
2023-01-07T04:22:56.966Z,12.49
2023-01-07T04:25:23.475Z,12.49
2023-01-07T04:27:50.212Z,12.47
2023-01-07T04:30:16.981Z,12.48
2023-01-07T04:32:43.501Z,12.47
2023-01-07T04:35:10.838Z,12.46
2023-01-07T04:37:37.986Z,12.44
2023-01-07T04:40:05.017Z,12.44
2023-01-07T04:42:34.796Z,12.41
2023-01-07T04:45:01.790Z,12.41
2023-01-07T04:47:29.041Z,12.40
2023-01-07T04:49:56.246Z,12.37
2023-01-07T04:52:22.748Z,12.34
2023-01-07T04:54:49.240Z,12.32
2023-01-07T04:57:16.076Z,12.29
2023-01-07T04:59:44.842Z,12.27
2023-01-07T05:02:11.368Z,12.24
2023-01-07T05:04:38.224Z,12.21
2023-01-07T05:07:05.594Z,12.17
2023-01-07T05:09:32.178Z,12.17
2023-01-07T05:11:59.520Z,12.15
2023-01-07T05:14:26.224Z,12.14
2023-01-07T05:16:54.313Z,12.11
2023-01-07T05:19:20.884Z,12.10
2023-01-07T05:21:48.611Z,12.10
2023-01-07T05:24:16.146Z,12.09
2023-01-07T05:26:42.572Z,12.06
2023-01-07T05:29:10.292Z,12.05
2023-01-07T05:31:37.332Z,12.04
2023-01-07T05:34:04.516Z,12.01
2023-01-07T05:36:31.298Z,12.01
2023-01-07T05:38:57.758Z,11.96
2023-01-07T05:41:24.221Z,11.97
2023-01-07T05:43:50.747Z,11.96
2023-01-07T05:46:17.394Z,11.94
2023-01-07T05:48:43.863Z,11.92
2023-01-07T05:51:10.468Z,11.91
2023-01-07T05:53:36.984Z,11.89
2023-01-07T05:56:03.702Z,11.89
2023-01-07T05:58:30.172Z,11.87
2023-01-07T06:00:56.668Z,11.87
2023-01-07T06:03:23.632Z,11.86
2023-01-07T06:05:50.683Z,11.85
2023-01-07T06:08:17.257Z,11.83
2023-01-07T06:10:43.772Z,11.83
2023-01-07T06:13:10.288Z,11.81
2023-01-07T06:15:36.722Z,11.80
2023-01-07T06:18:03.337Z,11.79
2023-01-07T06:20:29.783Z,11.75
2023-01-07T06:22:56.249Z,11.74
2023-01-07T06:25:22.694Z,11.71
2023-01-07T06:27:49.179Z,11.70
2023-01-07T06:30:15.674Z,11.66
2023-01-07T06:32:43.485Z,11.63
2023-01-07T06:35:11.535Z,11.60
2023-01-07T06:37:38.497Z,11.58
2023-01-07T06:40:05.950Z,11.54
2023-01-07T06:42:32.429Z,11.50
2023-01-07T06:44:58.939Z,11.50
2023-01-07T06:47:25.458Z,11.47
2023-01-07T06:49:52.770Z,11.46
2023-01-07T06:52:19.238Z,11.43
2023-01-07T06:54:48.294Z,11.42
2023-01-07T06:57:15.056Z,11.38
2023-01-07T06:59:41.501Z,11.36
2023-01-07T07:02:17.203Z,11.36
2023-01-07T07:04:43.701Z,11.35
2023-01-07T07:07:10.198Z,11.31
2023-01-07T07:09:36.660Z,11.30
2023-01-07T07:12:03.263Z,11.25
2023-01-07T07:14:29.736Z,11.27
2023-01-07T07:16:56.170Z,11.24
2023-01-07T07:19:22.689Z,11.24
2023-01-07T07:21:49.139Z,11.21
2023-01-07T07:24:15.593Z,11.19
2023-01-07T07:26:42.078Z,11.18
2023-01-07T07:29:11.060Z,11.16
2023-01-07T07:31:37.696Z,11.13
2023-01-07T07:34:04.684Z,11.12
2023-01-07T07:36:31.485Z,11.11
2023-01-07T07:38:57.955Z,11.11
2023-01-07T07:41:24.391Z,11.09
2023-01-07T07:43:50.871Z,11.08
2023-01-07T07:46:17.436Z,11.06
2023-01-07T07:48:43.935Z,11.05
2023-01-07T07:51:10.397Z,11.04
2023-01-07T07:53:36.856Z,11.02
2023-01-07T07:56:03.370Z,10.99
2023-01-07T07:58:29.833Z,10.98
2023-01-07T08:00:56.378Z,10.95
2023-01-07T08:03:22.927Z,10.93
2023-01-07T08:05:49.429Z,10.93
2023-01-07T08:08:15.942Z,10.93
2023-01-07T08:10:42.452Z,10.92
2023-01-07T08:13:09.012Z,10.92
2023-01-07T08:15:35.722Z,10.93
2023-01-07T08:18:05.479Z,10.92
2023-01-07T08:20:33.868Z,10.94
2023-01-07T08:23:01.642Z,10.96
2023-01-07T08:25:30.004Z,10.96
2023-01-07T08:27:58.017Z,10.97
2023-01-07T08:30:25.506Z,10.98
2023-01-07T08:32:52.167Z,10.99
2023-01-07T08:35:18.661Z,10.99
2023-01-07T08:37:45.320Z,10.99
2023-01-07T08:40:13.567Z,10.96
2023-01-07T08:42:40.654Z,11.02
2023-01-07T08:45:09.037Z,11.02
2023-01-07T08:47:35.503Z,11.03
2023-01-07T08:50:04.001Z,11.00
2023-01-07T08:52:30.444Z,11.04
2023-01-07T08:54:56.918Z,11.05
2023-01-07T08:57:23.383Z,11.04
2023-01-07T08:59:49.859Z,11.03
2023-01-07T09:02:18.932Z,11.03
2023-01-07T09:04:45.977Z,11.03
2023-01-07T09:07:12.453Z,11.03
2023-01-07T09:09:38.973Z,11.02
2023-01-07T09:12:05.978Z,11.02
2023-01-07T09:14:32.625Z,11.01
2023-01-07T09:16:59.115Z,11.00
2023-01-07T09:19:25.753Z,10.98
2023-01-07T09:21:52.174Z,10.96
2023-01-07T09:24:18.711Z,10.99
2023-01-07T09:26:45.217Z,10.98
2023-01-07T09:29:11.863Z,10.99
2023-01-07T09:31:38.329Z,10.98
2023-01-07T09:34:05.099Z,10.96
2023-01-07T09:36:31.569Z,10.92
2023-01-07T09:38:58.033Z,10.88
2023-01-07T09:41:51.503Z,10.84
2023-01-07T09:44:27.629Z,10.79
2023-01-07T09:46:57.337Z,10.72
2023-01-07T09:49:29.477Z,10.74
2023-01-07T09:52:04.897Z,10.66
2023-01-07T09:54:36.504Z,10.67
2023-01-07T09:57:03.564Z,10.66
2023-01-07T09:59:30.661Z,10.65
2023-01-07T10:02:26.349Z,10.62
2023-01-07T10:05:22.608Z,10.59
2023-01-07T10:08:29.161Z,10.56
2023-01-07T10:10:57.433Z,10.56
2023-01-07T10:13:35.067Z,10.49
2023-01-07T10:16:24.817Z,10.50
2023-01-07T10:19:04.529Z,10.50
2023-01-07T10:21:42.781Z,10.49
2023-01-07T10:24:19.402Z,10.46
2023-01-07T10:26:50.687Z,10.43
2023-01-07T10:29:19.172Z,10.40
2023-01-07T10:31:46.811Z,10.38
2023-01-07T10:34:18.059Z,10.36
2023-01-07T10:37:11.574Z,10.32
2023-01-07T10:40:19.383Z,10.29
2023-01-07T10:42:57.170Z,10.27
2023-01-07T10:45:48.641Z,10.24
2023-01-07T10:48:33.751Z,10.23
2023-01-07T10:51:25.507Z,10.17
2023-01-07T10:54:19.641Z,10.21
2023-01-07T10:56:55.011Z,10.20
2023-01-07T10:59:22.701Z,10.21
2023-01-07T11:01:52.798Z,10.21
2023-01-07T11:04:20.205Z,10.24
2023-01-07T11:06:56.242Z,10.23
2023-01-07T11:09:33.515Z,10.23
2023-01-07T11:12:06.900Z,10.21
2023-01-07T11:14:40.139Z,10.28
2023-01-07T11:17:15.519Z,10.31
2023-01-07T11:19:47.261Z,10.32
2023-01-07T11:22:26.015Z,10.34
2023-01-07T11:24:56.873Z,10.36
2023-01-07T11:27:29.743Z,10.36
2023-01-07T11:29:59.171Z,10.40
2023-01-07T11:32:29.585Z,10.41
2023-01-07T11:35:03.072Z,10.42
2023-01-07T11:37:33.954Z,10.44
2023-01-07T11:40:05.360Z,10.44
2023-01-07T11:42:31.866Z,10.45
2023-01-07T11:46:19.516Z,10.42
2023-01-07T11:48:37.668Z,10.43
2023-01-07T11:51:06.868Z,10.41
2023-01-07T11:53:38.779Z,10.40
2023-01-07T11:56:14.083Z,10.39
2023-01-07T11:58:46.139Z,10.40
2023-01-07T12:01:16.254Z,10.38
2023-01-07T12:04:01.505Z,10.40
2023-01-07T12:06:33.935Z,10.43
2023-01-07T12:09:09.217Z,10.44
2023-01-07T12:11:38.739Z,10.46
2023-01-07T12:14:33.196Z,10.46
2023-01-07T12:17:16.074Z,10.46
2023-01-07T12:19:59.279Z,10.46
2023-01-07T12:22:58.781Z,10.46
2023-01-07T12:25:39.936Z,10.48
2023-01-07T12:28:16.685Z,10.49
2023-01-07T12:30:49.302Z,10.52
2023-01-07T12:33:54.650Z,10.54
2023-01-07T12:36:35.461Z,10.53
2023-01-07T12:39:08.359Z,10.60
2023-01-07T12:41:43.276Z,10.62
2023-01-07T12:44:17.330Z,10.67
2023-01-07T12:46:51.472Z,10.70
2023-01-07T12:49:35.173Z,10.70
2023-01-07T12:52:13.398Z,10.72
2023-01-07T12:55:03.275Z,10.75
2023-01-07T12:57:42.028Z,10.81
2023-01-07T13:00:25.962Z,10.85
2023-01-07T13:03:22.447Z,10.85
2023-01-07T13:05:53.956Z,10.94
2023-01-07T13:08:20.354Z,10.99
2023-01-07T13:10:56.657Z,11.03
2023-01-07T13:13:47.003Z,11.05
2023-01-07T13:16:13.753Z,11.09
2023-01-07T13:18:40.298Z,11.11
2023-01-07T13:21:08.051Z,11.10
2023-01-07T13:24:02.070Z,11.18
2023-01-07T13:26:43.306Z,11.21
2023-01-07T13:29:37.896Z,11.27
2023-01-07T13:32:29.944Z,11.26
2023-01-07T13:35:09.154Z,11.38
2023-01-07T13:38:06.158Z,11.41
2023-01-07T13:40:51.132Z,11.44
2023-01-07T13:43:45.064Z,11.44
2023-01-07T13:46:19.284Z,11.41
2023-01-07T13:48:54.326Z,11.44
2023-01-07T13:51:36.645Z,11.40
2023-01-07T13:54:03.916Z,11.44
2023-01-07T13:56:36.869Z,11.45
2023-01-07T13:59:04.444Z,11.46
2023-01-07T14:01:32.644Z,11.48
2023-01-07T14:03:59.155Z,11.47
2023-01-07T14:06:49.003Z,11.48
2023-01-07T14:09:20.706Z,11.50
2023-01-07T14:12:08.405Z,11.48
2023-01-07T14:15:02.294Z,11.47
2023-01-07T14:17:57.063Z,11.44
2023-01-07T14:20:51.162Z,11.46
2023-01-07T14:23:35.043Z,11.46
2023-01-07T14:26:23.409Z,11.42
2023-01-07T14:29:03.964Z,11.36
2023-01-07T14:31:30.825Z,11.39
2023-01-07T14:34:01.553Z,11.37
2023-01-07T14:37:02.085Z,11.36
2023-01-07T14:39:35.935Z,11.34
2023-01-07T14:42:20.719Z,11.32
2023-01-07T14:44:48.802Z,11.32
2023-01-07T14:47:41.028Z,11.30
2023-01-07T14:50:18.239Z,11.28
2023-01-07T14:53:15.710Z,11.28
2023-01-07T14:56:00.947Z,11.28
2023-01-07T14:58:39.355Z,11.26
2023-01-07T15:01:32.042Z,11.33
2023-01-07T15:04:16.602Z,11.36
2023-01-07T15:06:44.167Z,11.35
2023-01-07T15:09:13.863Z,11.35
2023-01-07T15:11:43.215Z,11.33
2023-01-07T15:14:40.433Z,11.34
2023-01-07T15:17:07.869Z,11.38
2023-01-07T15:19:38.656Z,11.38
2023-01-07T15:22:35.111Z,11.37
2023-01-07T15:25:12.933Z,11.39
2023-01-07T15:27:42.032Z,11.46
2023-01-07T15:30:14.343Z,11.47
2023-01-07T15:32:53.088Z,11.42
2023-01-07T15:35:22.133Z,11.48
2023-01-07T15:37:50.665Z,11.39
2023-01-07T15:40:24.119Z,11.40
2023-01-07T15:42:53.213Z,11.29
2023-01-07T15:45:25.306Z,11.23
2023-01-07T15:47:51.799Z,11.23
2023-01-07T15:50:30.941Z,11.18
2023-01-07T15:53:00.471Z,11.13
2023-01-07T15:55:29.911Z,11.10
2023-01-07T15:58:02.773Z,11.02
2023-01-07T16:00:29.556Z,11.03
2023-01-07T16:02:56.622Z,11.02
2023-01-07T16:05:23.746Z,11.02
2023-01-07T16:07:57.376Z,11.01
2023-01-07T16:10:30.591Z,11.03
2023-01-07T16:12:59.715Z,11.01
2023-01-07T16:15:31.532Z,11.04
2023-01-07T16:18:03.287Z,11.05
2023-01-07T16:20:35.508Z,11.05
2023-01-07T16:23:08.326Z,11.03
2023-01-07T16:25:38.654Z,11.01
2023-01-07T16:28:06.554Z,10.99
2023-01-07T16:30:38.553Z,10.91
2023-01-07T16:33:05.441Z,10.91
2023-01-07T16:35:34.527Z,10.84
2023-01-07T16:38:01.802Z,10.84
2023-01-07T16:40:36.955Z,10.75
2023-01-07T16:43:05.400Z,10.75
2023-01-07T16:45:33.589Z,10.69
2023-01-07T16:48:20.335Z,10.67
2023-01-07T16:50:48.655Z,10.65
2023-01-07T16:53:24.324Z,10.61
2023-01-07T16:56:08.312Z,10.57
2023-01-07T16:58:40.872Z,10.57
2023-01-07T17:01:08.651Z,10.53
2023-01-07T17:03:51.072Z,10.50
2023-01-07T17:06:24.335Z,10.50
2023-01-07T17:08:54.737Z,10.44
2023-01-07T17:11:28.172Z,10.46
2023-01-07T17:13:54.686Z,10.49
2023-01-07T17:16:34.513Z,10.51
2023-01-07T17:19:24.284Z,10.52
2023-01-07T17:21:50.770Z,10.53
2023-01-07T17:24:43.257Z,10.51
2023-01-07T17:27:26.088Z,10.46
2023-01-07T17:29:52.763Z,10.51
2023-01-07T17:32:20.066Z,10.53
2023-01-07T17:34:46.559Z,10.52
2023-01-07T17:37:15.043Z,10.45
2023-01-07T17:39:42.314Z,10.55
2023-01-07T17:42:28.999Z,10.55
2023-01-07T17:44:55.427Z,10.57
2023-01-07T17:47:21.841Z,10.57
2023-01-07T17:49:48.351Z,10.55
2023-01-07T17:52:14.846Z,10.54
2023-01-07T17:54:44.002Z,10.53
2023-01-07T17:57:12.304Z,10.53
2023-01-07T17:59:38.761Z,10.51
2023-01-07T18:02:05.492Z,10.51
2023-01-07T18:04:32.104Z,10.54
2023-01-07T18:06:58.540Z,10.54
2023-01-07T18:09:24.956Z,10.57
2023-01-07T18:11:51.423Z,10.46
2023-01-07T18:14:17.961Z,10.27
2023-01-07T18:16:44.520Z,10.07
2023-01-07T18:19:13.203Z,9.81
2023-01-07T18:21:39.975Z,9.70
2023-01-07T18:24:06.921Z,9.55
2023-01-07T18:26:33.544Z,9.43
2023-01-07T18:29:00.044Z,9.35
2023-01-07T18:31:26.492Z,9.26
2023-01-07T18:33:52.965Z,9.09
2023-01-07T18:36:19.549Z,8.90
2023-01-07T18:38:46.012Z,8.71
2023-01-07T18:41:12.511Z,8.52
2023-01-07T18:43:39.238Z,8.41
2023-01-07T18:46:09.556Z,8.30
2023-01-07T18:48:36.289Z,8.25
2023-01-07T18:51:09.540Z,8.16
2023-01-07T18:53:35.993Z,8.16
2023-01-07T18:56:02.580Z,8.13
2023-01-07T18:58:29.147Z,8.10
2023-01-07T19:00:55.636Z,8.08
2023-01-07T19:03:22.271Z,8.07
2023-01-07T19:05:48.693Z,8.06
2023-01-07T19:08:15.151Z,8.07
2023-01-07T19:10:41.992Z,8.07
2023-01-07T19:13:08.492Z,8.06
2023-01-07T19:15:34.952Z,8.04
2023-01-07T19:18:01.439Z,8.05
2023-01-07T19:20:27.853Z,8.04
2023-01-07T19:22:54.302Z,8.03
2023-01-07T19:25:20.726Z,8.03
2023-01-07T19:27:47.155Z,8.04
2023-01-07T19:30:13.716Z,8.04
2023-01-07T19:32:40.184Z,8.04
2023-01-07T19:35:07.022Z,8.06
2023-01-07T19:37:36.775Z,8.06
2023-01-07T19:40:04.224Z,8.03
2023-01-07T19:42:32.295Z,8.01
2023-01-07T19:44:58.755Z,8.01
2023-01-07T19:47:25.409Z,8.00
2023-01-07T19:49:51.845Z,7.99
2023-01-07T19:52:18.320Z,7.98
2023-01-07T19:54:44.765Z,7.97
2023-01-07T19:57:11.241Z,7.96
2023-01-07T19:59:37.674Z,7.93
2023-01-07T20:02:04.882Z,7.93
2023-01-07T20:04:31.377Z,7.91
2023-01-07T20:06:57.864Z,7.90
2023-01-07T20:09:24.293Z,7.88
2023-01-07T20:11:50.847Z,7.87
2023-01-07T20:14:17.357Z,7.85
2023-01-07T20:16:44.003Z,7.83
2023-01-07T20:19:11.295Z,7.78
2023-01-07T20:21:37.771Z,7.76
2023-01-07T20:24:04.457Z,7.74
2023-01-07T20:26:32.731Z,7.66
2023-01-07T20:29:00.178Z,7.65
2023-01-07T20:31:28.744Z,7.57
2023-01-07T20:33:55.220Z,7.58
2023-01-07T20:36:24.103Z,7.53
2023-01-07T20:38:50.972Z,7.49
2023-01-07T20:41:20.580Z,7.45
2023-01-07T20:43:52.147Z,7.38
2023-01-07T20:46:18.877Z,7.38
2023-01-07T20:48:45.684Z,7.34
2023-01-07T20:51:13.483Z,7.28
2023-01-07T20:53:40.111Z,7.28
2023-01-07T20:56:07.079Z,7.26
2023-01-07T20:58:35.633Z,7.23
2023-01-07T21:01:07.234Z,7.19
2023-01-07T21:03:34.120Z,7.19
2023-01-07T21:06:00.858Z,7.16
2023-01-07T21:08:27.525Z,7.14
2023-01-07T21:10:54.553Z,7.12
2023-01-07T21:13:22.272Z,7.11
2023-01-07T21:15:49.242Z,7.10
2023-01-07T21:18:15.849Z,7.06
2023-01-07T21:20:42.797Z,7.05
2023-01-07T21:23:10.149Z,7.03
2023-01-07T21:25:36.864Z,7.00
2023-01-07T21:28:03.546Z,6.98
2023-01-07T21:30:30.019Z,6.97
2023-01-07T21:32:58.377Z,6.95
2023-01-07T21:35:25.950Z,6.95
2023-01-07T21:37:53.619Z,6.88
2023-01-07T21:40:20.493Z,6.91
2023-01-07T21:42:47.100Z,6.89
2023-01-07T21:45:13.663Z,6.87
2023-01-07T21:47:40.316Z,6.86
2023-01-07T21:50:07.175Z,6.86
2023-01-07T21:52:35.052Z,6.86
2023-01-07T21:55:01.546Z,6.82
2023-01-07T21:57:28.060Z,6.83
2023-01-07T21:59:54.484Z,6.82
2023-01-07T22:02:21.009Z,6.82
2023-01-07T22:04:47.860Z,6.81
2023-01-07T22:07:16.273Z,6.79
2023-01-07T22:09:43.165Z,6.79
2023-01-07T22:12:11.563Z,6.75
2023-01-07T22:14:38.128Z,6.79
2023-01-07T22:17:05.376Z,6.79
2023-01-07T22:19:32.066Z,6.69
2023-01-07T22:21:58.837Z,6.76
2023-01-07T22:24:25.346Z,6.76
2023-01-07T22:26:52.019Z,6.80
2023-01-07T22:29:18.862Z,6.75
2023-01-07T22:31:45.859Z,6.72
2023-01-07T22:34:12.375Z,6.72
2023-01-07T22:36:46.984Z,6.73
2023-01-07T22:39:37.564Z,6.75
2023-01-07T22:42:12.823Z,6.69
2023-01-07T22:44:45.197Z,6.72
2023-01-07T22:47:15.251Z,6.74
2023-01-07T22:49:42.229Z,6.69
2023-01-07T22:52:10.026Z,6.70
2023-01-07T22:54:46.980Z,6.75
2023-01-07T22:57:13.932Z,6.77
2023-01-07T22:59:40.544Z,6.81
2023-01-07T23:02:07.074Z,6.83
2023-01-07T23:04:33.759Z,6.84
2023-01-07T23:07:00.612Z,6.85
2023-01-07T23:09:27.108Z,6.85
2023-01-07T23:11:53.624Z,6.88
2023-01-07T23:14:22.677Z,6.91
2023-01-07T23:16:50.692Z,6.91
2023-01-07T23:19:19.765Z,6.97
2023-01-07T23:21:50.377Z,6.95
2023-01-07T23:24:17.107Z,6.93
2023-01-07T23:26:44.084Z,6.85
2023-01-07T23:29:10.773Z,6.98
2023-01-07T23:31:37.619Z,6.95
2023-01-07T23:34:05.425Z,6.97
2023-01-07T23:36:32.631Z,6.93
2023-01-07T23:38:59.155Z,6.96
2023-01-07T23:41:25.806Z,6.95
2023-01-07T23:43:52.345Z,6.99
2023-01-07T23:46:18.987Z,6.89
2023-01-07T23:48:45.719Z,7.01
2023-01-07T23:51:18.143Z,6.94
2023-01-07T23:53:45.489Z,6.92
2023-01-07T23:56:13.506Z,7.03
2023-01-07T23:58:40.354Z,7.00
